To NAV CANADA Home Page Login to a new session Search on AWWS site Feedback and Comments Disclaimer Vers la page française équivalente Tips FAQ What's new on the site To the Forecasts and Observations / NOTAM section To "File a Flight Plan" website Publications and other links Update of the User's profile FIC Telephone Numbers My Weather Data Folder Route Weather Data Regional Weather Data Local Weather Data To the Forecasts and Observations / NOTAM section
Request Generated 04/19/2014 at 17:04:29 UTC . Weather information available at that time is displayed.

METAR/TAF

HAMILTON/ON    

METAR CYHM 191600Z 03012G19KT 15SM FEW030 FEW250 07/00 A3044 RMK
CU1CI1 CU TR CI TR SLP313=
METAR CYHM 191500Z 03016KT 15SM FEW025 07/M00 A3044 RMK CU1 CU TR
SLP316=
METAR CYHM 191400Z 03011KT 15SM FEW020 05/00 A3044 RMK CU1 CU TR
SLP316=

TAF CYHM 191138Z 1912/2012 03005KT P6SM SKC
BECMG 1914/1916 05012KT
FM191600 05012KT P6SM FEW040
BECMG 2004/2006 12008KT
RMK NXT FCST BY 191800Z=
Your time UTC time
Weather data provided by Environment Canada and NAV CANADA